sensor_id;sensor_type;location;lat;lon;timestamp;P1;durP1;ratioP1;P2;durP2;ratioP2
58472;SDS011;44775;51.564;5.460;2023-05-07T00:00:12;14.57;;;13.07;;
58472;SDS011;44775;51.564;5.460;2023-05-07T00:02:40;15.35;;;12.65;;
58472;SDS011;44775;51.564;5.460;2023-05-07T00:05:05;15.30;;;13.65;;
58472;SDS011;44775;51.564;5.460;2023-05-07T00:07:31;15.10;;;13.50;;
58472;SDS011;44775;51.564;5.460;2023-05-07T00:09:56;14.18;;;12.68;;
58472;SDS011;44775;51.564;5.460;2023-05-07T00:12:22;15.23;;;13.60;;
58472;SDS011;44775;51.564;5.460;2023-05-07T00:14:47;16.00;;;13.50;;
58472;SDS011;44775;51.564;5.460;2023-05-07T00:17:12;14.82;;;13.32;;
58472;SDS011;44775;51.564;5.460;2023-05-07T00:19:37;15.02;;;13.43;;
58472;SDS011;44775;51.564;5.460;2023-05-07T00:22:03;15.13;;;13.25;;
58472;SDS011;44775;51.564;5.460;2023-05-07T00:24:28;15.15;;;13.20;;
58472;SDS011;44775;51.564;5.460;2023-05-07T00:26:53;15.55;;;13.90;;
58472;SDS011;44775;51.564;5.460;2023-05-07T00:29:19;18.63;;;14.73;;
58472;SDS011;44775;51.564;5.460;2023-05-07T00:31:44;16.98;;;14.43;;
58472;SDS011;44775;51.564;5.460;2023-05-07T00:34:09;18.05;;;14.02;;
58472;SDS011;44775;51.564;5.460;2023-05-07T00:36:35;17.33;;;14.77;;
58472;SDS011;44775;51.564;5.460;2023-05-07T00:39:00;17.20;;;14.70;;
58472;SDS011;44775;51.564;5.460;2023-05-07T00:41:28;17.80;;;14.35;;
58472;SDS011;44775;51.564;5.460;2023-05-07T00:43:53;15.73;;;14.07;;
58472;SDS011;44775;51.564;5.460;2023-05-07T00:46:21;16.30;;;14.13;;
58472;SDS011;44775;51.564;5.460;2023-05-07T00:48:47;15.23;;;13.00;;
58472;SDS011;44775;51.564;5.460;2023-05-07T00:51:13;15.98;;;14.27;;
58472;SDS011;44775;51.564;5.460;2023-05-07T00:53:39;16.58;;;14.55;;
58472;SDS011;44775;51.564;5.460;2023-05-07T00:56:04;16.85;;;14.00;;
58472;SDS011;44775;51.564;5.460;2023-05-07T00:58:31;16.73;;;14.63;;
58472;SDS011;44775;51.564;5.460;2023-05-07T01:00:58;18.38;;;14.85;;
58472;SDS011;44775;51.564;5.460;2023-05-07T01:03:24;19.60;;;15.35;;
58472;SDS011;44775;51.564;5.460;2023-05-07T01:05:49;18.40;;;15.73;;
58472;SDS011;44775;51.564;5.460;2023-05-07T01:08:16;18.33;;;15.18;;
58472;SDS011;44775;51.564;5.460;2023-05-07T01:10:42;18.48;;;15.43;;
58472;SDS011;44775;51.564;5.460;2023-05-07T01:13:11;18.23;;;15.00;;
58472;SDS011;44775;51.564;5.460;2023-05-07T01:15:37;17.88;;;15.35;;
58472;SDS011;44775;51.564;5.460;2023-05-07T01:18:05;18.88;;;16.17;;
58472;SDS011;44775;51.564;5.460;2023-05-07T01:20:31;20.50;;;15.85;;
58472;SDS011;44775;51.564;5.460;2023-05-07T01:22:57;19.17;;;15.73;;
58472;SDS011;44775;51.564;5.460;2023-05-07T01:25:22;20.80;;;16.08;;
58472;SDS011;44775;51.564;5.460;2023-05-07T01:27:49;21.20;;;16.30;;
58472;SDS011;44775;51.564;5.460;2023-05-07T01:30:14;20.48;;;17.15;;
58472;SDS011;44775;51.564;5.460;2023-05-07T01:35:16;15.18;;;13.32;;
58472;SDS011;44775;51.564;5.460;2023-05-07T01:37:45;23.08;;;17.05;;
58472;SDS011;44775;51.564;5.460;2023-05-07T01:40:12;20.67;;;16.80;;
58472;SDS011;44775;51.564;5.460;2023-05-07T01:42:38;22.67;;;15.00;;
58472;SDS011;44775;51.564;5.460;2023-05-07T01:45:04;19.65;;;17.00;;
58472;SDS011;44775;51.564;5.460;2023-05-07T01:47:29;19.50;;;15.70;;
58472;SDS011;44775;51.564;5.460;2023-05-07T01:49:56;20.55;;;16.30;;
58472;SDS011;44775;51.564;5.460;2023-05-07T01:52:22;14.93;;;13.07;;
58472;SDS011;44775;51.564;5.460;2023-05-07T01:54:47;21.00;;;16.85;;
58472;SDS011;44775;51.564;5.460;2023-05-07T01:57:12;16.95;;;14.63;;
58472;SDS011;44775;51.564;5.460;2023-05-07T01:59:38;20.35;;;17.42;;
58472;SDS011;44775;51.564;5.460;2023-05-07T02:02:03;19.42;;;17.35;;
58472;SDS011;44775;51.564;5.460;2023-05-07T02:04:28;22.92;;;17.63;;
58472;SDS011;44775;51.564;5.460;2023-05-07T02:06:54;19.55;;;16.83;;
58472;SDS011;44775;51.564;5.460;2023-05-07T02:09:19;18.92;;;15.93;;
58472;SDS011;44775;51.564;5.460;2023-05-07T02:11:44;21.90;;;18.55;;
58472;SDS011;44775;51.564;5.460;2023-05-07T02:14:10;22.00;;;18.50;;
58472;SDS011;44775;51.564;5.460;2023-05-07T02:16:35;23.08;;;18.73;;
58472;SDS011;44775;51.564;5.460;2023-05-07T02:19:01;16.83;;;15.10;;
58472;SDS011;44775;51.564;5.460;2023-05-07T02:21:27;20.15;;;16.23;;
58472;SDS011;44775;51.564;5.460;2023-05-07T02:23:52;25.42;;;20.13;;
58472;SDS011;44775;51.564;5.460;2023-05-07T02:26:17;23.73;;;17.75;;
58472;SDS011;44775;51.564;5.460;2023-05-07T02:28:43;24.10;;;20.10;;
58472;SDS011;44775;51.564;5.460;2023-05-07T02:31:08;25.58;;;20.20;;
58472;SDS011;44775;51.564;5.460;2023-05-07T02:33:33;24.73;;;20.83;;
58472;SDS011;44775;51.564;5.460;2023-05-07T02:36:06;26.77;;;21.70;;
58472;SDS011;44775;51.564;5.460;2023-05-07T02:38:35;25.30;;;22.02;;
58472;SDS011;44775;51.564;5.460;2023-05-07T02:41:01;23.73;;;20.60;;
58472;SDS011;44775;51.564;5.460;2023-05-07T02:43:26;28.10;;;21.92;;
58472;SDS011;44775;51.564;5.460;2023-05-07T02:48:27;29.05;;;23.40;;
58472;SDS011;44775;51.564;5.460;2023-05-07T02:50:53;29.20;;;22.92;;
58472;SDS011;44775;51.564;5.460;2023-05-07T02:53:18;26.63;;;22.15;;
58472;SDS011;44775;51.564;5.460;2023-05-07T02:55:43;31.08;;;23.52;;
58472;SDS011;44775;51.564;5.460;2023-05-07T02:58:09;29.17;;;23.10;;
58472;SDS011;44775;51.564;5.460;2023-05-07T03:00:34;29.75;;;24.30;;
58472;SDS011;44775;51.564;5.460;2023-05-07T03:02:59;30.55;;;25.25;;
58472;SDS011;44775;51.564;5.460;2023-05-07T03:05:25;28.92;;;23.98;;
58472;SDS011;44775;51.564;5.460;2023-05-07T03:07:50;29.88;;;24.95;;
58472;SDS011;44775;51.564;5.460;2023-05-07T03:10:15;31.00;;;25.25;;
58472;SDS011;44775;51.564;5.460;2023-05-07T03:12:41;33.15;;;26.00;;
58472;SDS011;44775;51.564;5.460;2023-05-07T03:15:06;36.15;;;26.67;;
58472;SDS011;44775;51.564;5.460;2023-05-07T03:17:33;31.38;;;24.58;;
58472;SDS011;44775;51.564;5.460;2023-05-07T03:19:58;34.25;;;26.27;;
58472;SDS011;44775;51.564;5.460;2023-05-07T03:22:23;33.13;;;26.23;;
58472;SDS011;44775;51.564;5.460;2023-05-07T03:24:48;34.80;;;27.08;;
58472;SDS011;44775;51.564;5.460;2023-05-07T03:27:14;32.33;;;26.75;;
58472;SDS011;44775;51.564;5.460;2023-05-07T03:29:40;34.47;;;27.45;;
58472;SDS011;44775;51.564;5.460;2023-05-07T03:32:06;36.65;;;27.20;;
58472;SDS011;44775;51.564;5.460;2023-05-07T03:34:31;34.45;;;27.73;;
58472;SDS011;44775;51.564;5.460;2023-05-07T03:36:56;38.03;;;28.48;;
58472;SDS011;44775;51.564;5.460;2023-05-07T03:39:21;34.80;;;28.50;;
58472;SDS011;44775;51.564;5.460;2023-05-07T03:41:47;37.42;;;29.23;;
58472;SDS011;44775;51.564;5.460;2023-05-07T03:44:12;37.95;;;29.30;;
58472;SDS011;44775;51.564;5.460;2023-05-07T03:46:37;38.67;;;29.00;;
58472;SDS011;44775;51.564;5.460;2023-05-07T03:49:03;33.95;;;26.83;;
58472;SDS011;44775;51.564;5.460;2023-05-07T03:51:28;38.40;;;28.65;;
58472;SDS011;44775;51.564;5.460;2023-05-07T03:53:53;37.40;;;29.35;;
58472;SDS011;44775;51.564;5.460;2023-05-07T03:56:19;37.40;;;29.73;;
58472;SDS011;44775;51.564;5.460;2023-05-07T03:58:44;40.53;;;30.15;;
58472;SDS011;44775;51.564;5.460;2023-05-07T04:01:10;39.38;;;30.38;;
58472;SDS011;44775;51.564;5.460;2023-05-07T04:03:36;39.38;;;29.80;;
58472;SDS011;44775;51.564;5.460;2023-05-07T04:06:01;39.30;;;29.85;;
58472;SDS011;44775;51.564;5.460;2023-05-07T04:08:27;31.95;;;26.55;;
58472;SDS011;44775;51.564;5.460;2023-05-07T04:10:55;36.63;;;29.52;;
58472;SDS011;44775;51.564;5.460;2023-05-07T04:13:21;37.97;;;30.38;;
58472;SDS011;44775;51.564;5.460;2023-05-07T04:15:46;41.72;;;32.45;;
58472;SDS011;44775;51.564;5.460;2023-05-07T04:18:14;40.70;;;30.88;;
58472;SDS011;44775;51.564;5.460;2023-05-07T04:20:39;39.03;;;30.95;;
58472;SDS011;44775;51.564;5.460;2023-05-07T04:23:04;42.13;;;30.88;;
58472;SDS011;44775;51.564;5.460;2023-05-07T04:25:30;39.63;;;30.45;;
58472;SDS011;44775;51.564;5.460;2023-05-07T04:27:55;38.05;;;28.17;;
58472;SDS011;44775;51.564;5.460;2023-05-07T04:30:21;39.13;;;30.38;;
58472;SDS011;44775;51.564;5.460;2023-05-07T04:32:46;38.08;;;30.92;;
58472;SDS011;44775;51.564;5.460;2023-05-07T04:35:13;40.15;;;31.80;;
58472;SDS011;44775;51.564;5.460;2023-05-07T04:37:38;41.78;;;31.92;;
58472;SDS011;44775;51.564;5.460;2023-05-07T04:40:03;40.85;;;31.98;;
58472;SDS011;44775;51.564;5.460;2023-05-07T04:42:29;41.85;;;32.88;;
58472;SDS011;44775;51.564;5.460;2023-05-07T04:44:55;40.25;;;32.67;;
58472;SDS011;44775;51.564;5.460;2023-05-07T04:47:20;40.33;;;32.17;;
58472;SDS011;44775;51.564;5.460;2023-05-07T04:49:46;43.33;;;34.22;;
58472;SDS011;44775;51.564;5.460;2023-05-07T04:52:11;40.88;;;33.85;;
58472;SDS011;44775;51.564;5.460;2023-05-07T04:54:36;40.88;;;32.50;;
58472;SDS011;44775;51.564;5.460;2023-05-07T04:57:03;29.65;;;23.35;;
58472;SDS011;44775;51.564;5.460;2023-05-07T04:59:29;33.95;;;28.63;;
58472;SDS011;44775;51.564;5.460;2023-05-07T05:01:54;43.20;;;34.10;;
58472;SDS011;44775;51.564;5.460;2023-05-07T05:04:20;45.13;;;34.30;;
58472;SDS011;44775;51.564;5.460;2023-05-07T05:06:45;42.67;;;35.30;;
58472;SDS011;44775;51.564;5.460;2023-05-07T05:09:10;43.75;;;35.38;;
58472;SDS011;44775;51.564;5.460;2023-05-07T05:11:36;40.92;;;33.97;;
58472;SDS011;44775;51.564;5.460;2023-05-07T05:14:01;45.08;;;36.10;;
58472;SDS011;44775;51.564;5.460;2023-05-07T05:16:27;43.08;;;35.15;;
58472;SDS011;44775;51.564;5.460;2023-05-07T05:18:52;38.67;;;32.33;;
58472;SDS011;44775;51.564;5.460;2023-05-07T05:21:19;41.35;;;35.42;;
58472;SDS011;44775;51.564;5.460;2023-05-07T05:23:45;46.45;;;35.90;;
58472;SDS011;44775;51.564;5.460;2023-05-07T05:26:10;40.08;;;32.10;;
58472;SDS011;44775;51.564;5.460;2023-05-07T05:28:35;40.13;;;33.47;;
58472;SDS011;44775;51.564;5.460;2023-05-07T05:31:01;33.70;;;28.92;;
58472;SDS011;44775;51.564;5.460;2023-05-07T05:33:26;36.88;;;32.90;;
58472;SDS011;44775;51.564;5.460;2023-05-07T05:35:53;37.67;;;32.47;;
58472;SDS011;44775;51.564;5.460;2023-05-07T05:38:19;36.35;;;32.10;;
58472;SDS011;44775;51.564;5.460;2023-05-07T05:40:45;41.92;;;34.88;;
58472;SDS011;44775;51.564;5.460;2023-05-07T05:43:11;39.33;;;35.05;;
58472;SDS011;44775;51.564;5.460;2023-05-07T05:45:36;35.85;;;32.05;;
58472;SDS011;44775;51.564;5.460;2023-05-07T05:48:01;36.47;;;30.45;;
58472;SDS011;44775;51.564;5.460;2023-05-07T05:50:27;32.83;;;29.20;;
58472;SDS011;44775;51.564;5.460;2023-05-07T05:52:52;35.13;;;29.75;;
58472;SDS011;44775;51.564;5.460;2023-05-07T05:55:17;31.40;;;28.10;;
58472;SDS011;44775;51.564;5.460;2023-05-07T05:57:43;33.97;;;29.25;;
58472;SDS011;44775;51.564;5.460;2023-05-07T06:00:08;26.00;;;23.17;;
58472;SDS011;44775;51.564;5.460;2023-05-07T06:02:34;31.60;;;27.13;;
58472;SDS011;44775;51.564;5.460;2023-05-07T06:04:59;25.13;;;21.73;;
58472;SDS011;44775;51.564;5.460;2023-05-07T06:07:25;29.85;;;26.35;;
58472;SDS011;44775;51.564;5.460;2023-05-07T06:09:50;26.33;;;23.50;;
58472;SDS011;44775;51.564;5.460;2023-05-07T06:12:15;25.25;;;22.25;;
58472;SDS011;44775;51.564;5.460;2023-05-07T06:14:42;26.15;;;22.77;;
58472;SDS011;44775;51.564;5.460;2023-05-07T06:17:08;21.25;;;18.95;;
58472;SDS011;44775;51.564;5.460;2023-05-07T06:19:33;28.52;;;25.52;;
58472;SDS011;44775;51.564;5.460;2023-05-07T06:21:58;29.10;;;24.45;;
58472;SDS011;44775;51.564;5.460;2023-05-07T06:24:26;28.13;;;25.13;;
58472;SDS011;44775;51.564;5.460;2023-05-07T06:26:51;30.90;;;25.67;;
58472;SDS011;44775;51.564;5.460;2023-05-07T06:29:16;18.05;;;16.25;;
58472;SDS011;44775;51.564;5.460;2023-05-07T06:31:42;29.05;;;25.92;;
58472;SDS011;44775;51.564;5.460;2023-05-07T06:34:07;24.58;;;21.92;;
58472;SDS011;44775;51.564;5.460;2023-05-07T06:36:32;32.08;;;26.25;;
58472;SDS011;44775;51.564;5.460;2023-05-07T06:38:58;26.27;;;23.45;;
58472;SDS011;44775;51.564;5.460;2023-05-07T06:41:23;23.33;;;20.85;;
58472;SDS011;44775;51.564;5.460;2023-05-07T06:43:48;27.77;;;24.73;;
58472;SDS011;44775;51.564;5.460;2023-05-07T06:46:14;27.27;;;23.23;;
58472;SDS011;44775;51.564;5.460;2023-05-07T06:48:39;20.27;;;17.05;;
58472;SDS011;44775;51.564;5.460;2023-05-07T06:51:05;28.25;;;25.05;;
58472;SDS011;44775;51.564;5.460;2023-05-07T06:53:30;28.33;;;22.85;;
58472;SDS011;44775;51.564;5.460;2023-05-07T06:55:56;28.73;;;23.55;;
58472;SDS011;44775;51.564;5.460;2023-05-07T06:58:22;26.52;;;22.98;;
58472;SDS011;44775;51.564;5.460;2023-05-07T07:00:47;28.23;;;23.27;;
58472;SDS011;44775;51.564;5.460;2023-05-07T07:03:12;28.73;;;22.50;;
58472;SDS011;44775;51.564;5.460;2023-05-07T07:05:38;26.17;;;22.10;;
58472;SDS011;44775;51.564;5.460;2023-05-07T07:08:05;26.95;;;23.02;;
58472;SDS011;44775;51.564;5.460;2023-05-07T07:10:30;28.27;;;22.80;;
58472;SDS011;44775;51.564;5.460;2023-05-07T07:12:55;26.05;;;23.15;;
58472;SDS011;44775;51.564;5.460;2023-05-07T07:15:21;26.08;;;23.02;;
58472;SDS011;44775;51.564;5.460;2023-05-07T07:17:46;26.20;;;21.38;;
58472;SDS011;44775;51.564;5.460;2023-05-07T07:20:13;23.92;;;20.67;;
58472;SDS011;44775;51.564;5.460;2023-05-07T07:22:38;26.42;;;23.27;;
58472;SDS011;44775;51.564;5.460;2023-05-07T07:25:03;24.55;;;21.48;;
58472;SDS011;44775;51.564;5.460;2023-05-07T07:27:29;23.20;;;19.98;;
58472;SDS011;44775;51.564;5.460;2023-05-07T07:29:55;26.73;;;23.92;;
58472;SDS011;44775;51.564;5.460;2023-05-07T07:32:21;29.80;;;25.23;;
58472;SDS011;44775;51.564;5.460;2023-05-07T07:34:46;28.55;;;25.48;;
58472;SDS011;44775;51.564;5.460;2023-05-07T07:37:12;28.92;;;25.63;;
58472;SDS011;44775;51.564;5.460;2023-05-07T07:39:37;29.77;;;24.45;;
58472;SDS011;44775;51.564;5.460;2023-05-07T07:42:02;18.10;;;15.88;;
58472;SDS011;44775;51.564;5.460;2023-05-07T07:44:28;25.15;;;20.88;;
58472;SDS011;44775;51.564;5.460;2023-05-07T07:46:53;29.55;;;25.60;;
58472;SDS011;44775;51.564;5.460;2023-05-07T07:49:18;28.38;;;24.40;;
58472;SDS011;44775;51.564;5.460;2023-05-07T07:51:44;26.27;;;21.23;;
58472;SDS011;44775;51.564;5.460;2023-05-07T07:54:09;29.90;;;24.17;;
58472;SDS011;44775;51.564;5.460;2023-05-07T07:56:35;24.20;;;21.10;;
58472;SDS011;44775;51.564;5.460;2023-05-07T07:59:00;27.10;;;24.10;;
58472;SDS011;44775;51.564;5.460;2023-05-07T08:01:26;25.27;;;22.55;;
58472;SDS011;44775;51.564;5.460;2023-05-07T08:03:51;20.05;;;16.65;;
58472;SDS011;44775;51.564;5.460;2023-05-07T08:06:17;21.02;;;18.58;;
58472;SDS011;44775;51.564;5.460;2023-05-07T08:08:43;16.67;;;13.38;;
58472;SDS011;44775;51.564;5.460;2023-05-07T08:11:08;20.15;;;17.98;;
58472;SDS011;44775;51.564;5.460;2023-05-07T08:13:34;24.85;;;19.83;;
58472;SDS011;44775;51.564;5.460;2023-05-07T08:15:59;21.77;;;19.17;;
58472;SDS011;44775;51.564;5.460;2023-05-07T08:18:25;24.55;;;21.13;;
58472;SDS011;44775;51.564;5.460;2023-05-07T08:20:50;22.38;;;19.85;;
58472;SDS011;44775;51.564;5.460;2023-05-07T08:23:16;23.67;;;21.08;;
58472;SDS011;44775;51.564;5.460;2023-05-07T08:25:41;23.00;;;20.50;;
58472;SDS011;44775;51.564;5.460;2023-05-07T08:28:07;17.02;;;15.27;;
58472;SDS011;44775;51.564;5.460;2023-05-07T08:30:33;21.67;;;18.92;;
58472;SDS011;44775;51.564;5.460;2023-05-07T08:32:59;15.55;;;13.05;;
58472;SDS011;44775;51.564;5.460;2023-05-07T08:35:25;20.65;;;18.45;;
58472;SDS011;44775;51.564;5.460;2023-05-07T08:37:51;19.55;;;17.42;;
58472;SDS011;44775;51.564;5.460;2023-05-07T08:40:17;18.13;;;16.23;;
58472;SDS011;44775;51.564;5.460;2023-05-07T08:42:42;19.00;;;17.10;;
58472;SDS011;44775;51.564;5.460;2023-05-07T08:45:10;20.73;;;17.27;;
58472;SDS011;44775;51.564;5.460;2023-05-07T08:47:41;20.65;;;17.70;;
58472;SDS011;44775;51.564;5.460;2023-05-07T08:50:12;18.77;;;16.88;;
58472;SDS011;44775;51.564;5.460;2023-05-07T08:52:38;16.25;;;14.55;;
58472;SDS011;44775;51.564;5.460;2023-05-07T08:55:05;18.30;;;16.40;;
58472;SDS011;44775;51.564;5.460;2023-05-07T08:57:31;17.38;;;15.45;;
58472;SDS011;44775;51.564;5.460;2023-05-07T08:59:57;15.02;;;13.50;;
58472;SDS011;44775;51.564;5.460;2023-05-07T09:02:22;16.05;;;14.15;;
58472;SDS011;44775;51.564;5.460;2023-05-07T09:04:47;18.58;;;16.58;;
58472;SDS011;44775;51.564;5.460;2023-05-07T09:07:12;17.98;;;14.20;;
58472;SDS011;44775;51.564;5.460;2023-05-07T09:09:38;14.50;;;13.07;;
58472;SDS011;44775;51.564;5.460;2023-05-07T09:12:03;13.82;;;12.43;;
58472;SDS011;44775;51.564;5.460;2023-05-07T09:14:29;14.13;;;12.80;;
58472;SDS011;44775;51.564;5.460;2023-05-07T09:16:55;16.95;;;15.25;;
58472;SDS011;44775;51.564;5.460;2023-05-07T09:19:25;17.27;;;15.50;;
58472;SDS011;44775;51.564;5.460;2023-05-07T09:21:57;17.33;;;15.57;;
58472;SDS011;44775;51.564;5.460;2023-05-07T09:24:24;15.25;;;13.10;;
58472;SDS011;44775;51.564;5.460;2023-05-07T09:26:49;16.25;;;13.27;;
58472;SDS011;44775;51.564;5.460;2023-05-07T09:29:15;17.45;;;15.65;;
58472;SDS011;44775;51.564;5.460;2023-05-07T09:31:41;16.77;;;15.07;;
58472;SDS011;44775;51.564;5.460;2023-05-07T09:34:07;18.23;;;16.42;;
58472;SDS011;44775;51.564;5.460;2023-05-07T09:36:33;19.35;;;16.83;;
58472;SDS011;44775;51.564;5.460;2023-05-07T09:39:01;15.73;;;14.10;;
58472;SDS011;44775;51.564;5.460;2023-05-07T09:43:54;15.03;;;11.40;;
58472;SDS011;44775;51.564;5.460;2023-05-07T09:46:20;11.02;;;9.88;;
58472;SDS011;44775;51.564;5.460;2023-05-07T09:48:59;18.90;;;14.52;;
58472;SDS011;44775;51.564;5.460;2023-05-07T09:51:30;16.38;;;14.38;;
58472;SDS011;44775;51.564;5.460;2023-05-07T09:54:01;15.15;;;13.60;;
58472;SDS011;44775;51.564;5.460;2023-05-07T09:56:29;11.02;;;9.30;;
58472;SDS011;44775;51.564;5.460;2023-05-07T09:58:56;13.68;;;12.32;;
58472;SDS011;44775;51.564;5.460;2023-05-07T10:01:24;13.70;;;12.00;;
58472;SDS011;44775;51.564;5.460;2023-05-07T10:03:50;14.55;;;13.23;;
58472;SDS011;44775;51.564;5.460;2023-05-07T10:06:17;14.68;;;11.63;;
58472;SDS011;44775;51.564;5.460;2023-05-07T10:08:44;16.10;;;13.52;;
58472;SDS011;44775;51.564;5.460;2023-05-07T10:11:10;14.50;;;12.77;;
58472;SDS011;44775;51.564;5.460;2023-05-07T10:13:36;12.57;;;11.07;;
58472;SDS011;44775;51.564;5.460;2023-05-07T10:16:03;15.23;;;13.73;;
58472;SDS011;44775;51.564;5.460;2023-05-07T10:18:33;11.88;;;10.65;;
58472;SDS011;44775;51.564;5.460;2023-05-07T10:21:08;14.90;;;13.40;;
58472;SDS011;44775;51.564;5.460;2023-05-07T10:23:40;10.75;;;9.05;;
58472;SDS011;44775;51.564;5.460;2023-05-07T10:26:09;14.45;;;13.02;;
58472;SDS011;44775;51.564;5.460;2023-05-07T10:28:37;14.00;;;11.98;;
58472;SDS011;44775;51.564;5.460;2023-05-07T10:33:48;13.10;;;11.77;;
58472;SDS011;44775;51.564;5.460;2023-05-07T10:36:16;8.35;;;7.22;;
58472;SDS011;44775;51.564;5.460;2023-05-07T10:38:42;6.28;;;5.45;;
58472;SDS011;44775;51.564;5.460;2023-05-07T10:41:08;15.85;;;12.63;;
58472;SDS011;44775;51.564;5.460;2023-05-07T10:43:38;12.40;;;10.38;;
58472;SDS011;44775;51.564;5.460;2023-05-07T10:51:31;12.48;;;11.05;;
58472;SDS011;44775;51.564;5.460;2023-05-07T10:56:35;13.25;;;11.85;;
58472;SDS011;44775;51.564;5.460;2023-05-07T11:01:55;11.38;;;9.45;;
58472;SDS011;44775;51.564;5.460;2023-05-07T11:04:22;13.18;;;10.60;;
58472;SDS011;44775;51.564;5.460;2023-05-07T11:13:03;10.05;;;8.07;;
58472;SDS011;44775;51.564;5.460;2023-05-07T11:15:07;11.45;;;10.25;;
58472;SDS011;44775;51.564;5.460;2023-05-07T11:17:33;12.23;;;10.82;;
58472;SDS011;44775;51.564;5.460;2023-05-07T11:20:00;13.55;;;12.13;;
58472;SDS011;44775;51.564;5.460;2023-05-07T11:24:55;12.50;;;9.82;;
58472;SDS011;44775;51.564;5.460;2023-05-07T11:27:24;8.95;;;6.45;;
58472;SDS011;44775;51.564;5.460;2023-05-07T11:29:49;5.20;;;4.75;;
58472;SDS011;44775;51.564;5.460;2023-05-07T11:32:15;6.18;;;5.28;;
58472;SDS011;44775;51.564;5.460;2023-05-07T11:34:47;5.15;;;4.22;;
58472;SDS011;44775;51.564;5.460;2023-05-07T11:37:19;5.38;;;4.88;;
58472;SDS011;44775;51.564;5.460;2023-05-07T11:39:45;13.85;;;9.88;;
58472;SDS011;44775;51.564;5.460;2023-05-07T11:42:31;10.80;;;9.70;;
58472;SDS011;44775;51.564;5.460;2023-05-07T11:44:57;10.75;;;9.20;;
58472;SDS011;44775;51.564;5.460;2023-05-07T11:47:23;6.03;;;5.43;;
58472;SDS011;44775;51.564;5.460;2023-05-07T11:49:49;6.32;;;5.72;;
58472;SDS011;44775;51.564;5.460;2023-05-07T11:52:16;6.07;;;4.60;;
58472;SDS011;44775;51.564;5.460;2023-05-07T11:54:49;10.02;;;8.45;;
58472;SDS011;44775;51.564;5.460;2023-05-07T11:57:15;7.05;;;5.00;;
58472;SDS011;44775;51.564;5.460;2023-05-07T11:59:40;7.57;;;6.75;;
58472;SDS011;44775;51.564;5.460;2023-05-07T12:02:06;9.35;;;7.55;;
58472;SDS011;44775;51.564;5.460;2023-05-07T12:04:32;9.38;;;6.50;;
58472;SDS011;44775;51.564;5.460;2023-05-07T12:06:57;6.88;;;6.18;;
58472;SDS011;44775;51.564;5.460;2023-05-07T12:09:23;5.05;;;3.90;;
58472;SDS011;44775;51.564;5.460;2023-05-07T12:11:48;3.10;;;2.67;;
58472;SDS011;44775;51.564;5.460;2023-05-07T12:14:13;9.82;;;5.97;;
58472;SDS011;44775;51.564;5.460;2023-05-07T12:16:40;11.30;;;7.28;;
58472;SDS011;44775;51.564;5.460;2023-05-07T12:19:06;6.68;;;4.60;;
58472;SDS011;44775;51.564;5.460;2023-05-07T12:21:33;4.23;;;3.47;;
58472;SDS011;44775;51.564;5.460;2023-05-07T12:23:59;4.93;;;3.08;;
58472;SDS011;44775;51.564;5.460;2023-05-07T12:26:25;9.23;;;6.60;;
58472;SDS011;44775;51.564;5.460;2023-05-07T12:28:50;5.20;;;3.88;;
58472;SDS011;44775;51.564;5.460;2023-05-07T12:31:16;4.68;;;4.15;;
58472;SDS011;44775;51.564;5.460;2023-05-07T12:33:42;5.15;;;4.30;;
58472;SDS011;44775;51.564;5.460;2023-05-07T12:36:08;5.40;;;4.63;;
58472;SDS011;44775;51.564;5.460;2023-05-07T12:38:37;10.55;;;6.72;;
58472;SDS011;44775;51.564;5.460;2023-05-07T12:41:03;11.38;;;8.88;;
58472;SDS011;44775;51.564;5.460;2023-05-07T12:43:29;9.57;;;7.00;;
58472;SDS011;44775;51.564;5.460;2023-05-07T12:45:55;11.75;;;8.77;;
58472;SDS011;44775;51.564;5.460;2023-05-07T12:48:23;10.60;;;9.43;;
58472;SDS011;44775;51.564;5.460;2023-05-07T12:50:59;9.27;;;8.27;;
58472;SDS011;44775;51.564;5.460;2023-05-07T12:53:25;12.20;;;9.23;;
58472;SDS011;44775;51.564;5.460;2023-05-07T12:55:53;5.13;;;3.95;;
58472;SDS011;44775;51.564;5.460;2023-05-07T13:00:49;2.90;;;2.20;;
58472;SDS011;44775;51.564;5.460;2023-05-07T13:03:29;4.07;;;2.30;;
58472;SDS011;44775;51.564;5.460;2023-05-07T13:05:57;3.95;;;2.50;;
58472;SDS011;44775;51.564;5.460;2023-05-07T13:10:54;4.18;;;3.20;;
58472;SDS011;44775;51.564;5.460;2023-05-07T13:13:20;7.30;;;3.47;;
58472;SDS011;44775;51.564;5.460;2023-05-07T13:15:46;11.23;;;4.22;;
58472;SDS011;44775;51.564;5.460;2023-05-07T13:18:12;12.55;;;4.90;;
58472;SDS011;44775;51.564;5.460;2023-05-07T13:20:37;6.22;;;4.00;;
58472;SDS011;44775;51.564;5.460;2023-05-07T13:23:03;8.52;;;4.88;;
58472;SDS011;44775;51.564;5.460;2023-05-07T13:25:29;12.30;;;5.15;;
58472;SDS011;44775;51.564;5.460;2023-05-07T13:27:56;9.73;;;4.15;;
58472;SDS011;44775;51.564;5.460;2023-05-07T13:30:22;8.32;;;4.75;;
58472;SDS011;44775;51.564;5.460;2023-05-07T13:32:47;6.45;;;4.60;;
58472;SDS011;44775;51.564;5.460;2023-05-07T13:35:13;8.50;;;4.97;;
58472;SDS011;44775;51.564;5.460;2023-05-07T13:37:39;9.38;;;6.30;;
58472;SDS011;44775;51.564;5.460;2023-05-07T13:40:04;11.50;;;6.03;;
58472;SDS011;44775;51.564;5.460;2023-05-07T13:42:31;11.27;;;6.47;;
58472;SDS011;44775;51.564;5.460;2023-05-07T13:44:56;10.90;;;7.35;;
58472;SDS011;44775;51.564;5.460;2023-05-07T13:47:22;10.43;;;8.05;;
58472;SDS011;44775;51.564;5.460;2023-05-07T13:49:47;11.98;;;10.15;;
58472;SDS011;44775;51.564;5.460;2023-05-07T13:52:15;12.23;;;10.05;;
58472;SDS011;44775;51.564;5.460;2023-05-07T13:54:40;14.55;;;9.55;;
58472;SDS011;44775;51.564;5.460;2023-05-07T13:57:07;12.60;;;9.93;;
58472;SDS011;44775;51.564;5.460;2023-05-07T13:59:33;19.00;;;10.73;;
58472;SDS011;44775;51.564;5.460;2023-05-07T14:01:58;15.63;;;11.68;;
58472;SDS011;44775;51.564;5.460;2023-05-07T14:04:23;16.48;;;11.73;;
58472;SDS011;44775;51.564;5.460;2023-05-07T14:06:48;12.00;;;9.15;;
58472;SDS011;44775;51.564;5.460;2023-05-07T14:09:14;7.55;;;5.28;;
58472;SDS011;44775;51.564;5.460;2023-05-07T14:11:39;16.77;;;11.68;;
58472;SDS011;44775;51.564;5.460;2023-05-07T14:14:05;14.23;;;10.77;;
58472;SDS011;44775;51.564;5.460;2023-05-07T14:16:31;13.63;;;10.20;;
58472;SDS011;44775;51.564;5.460;2023-05-07T14:18:56;16.05;;;11.45;;
58472;SDS011;44775;51.564;5.460;2023-05-07T14:21:22;15.48;;;12.43;;
58472;SDS011;44775;51.564;5.460;2023-05-07T14:23:47;14.23;;;12.43;;
58472;SDS011;44775;51.564;5.460;2023-05-07T14:26:13;10.25;;;7.28;;
58472;SDS011;44775;51.564;5.460;2023-05-07T14:28:38;16.55;;;12.77;;
58472;SDS011;44775;51.564;5.460;2023-05-07T14:31:04;14.02;;;12.45;;
58472;SDS011;44775;51.564;5.460;2023-05-07T14:33:31;14.80;;;12.18;;
58472;SDS011;44775;51.564;5.460;2023-05-07T14:35:56;15.00;;;12.50;;
58472;SDS011;44775;51.564;5.460;2023-05-07T14:38:21;18.23;;;13.30;;
58472;SDS011;44775;51.564;5.460;2023-05-07T14:40:47;15.65;;;11.88;;
58472;SDS011;44775;51.564;5.460;2023-05-07T14:43:12;14.55;;;10.98;;
58472;SDS011;44775;51.564;5.460;2023-05-07T14:45:37;11.85;;;9.82;;
58472;SDS011;44775;51.564;5.460;2023-05-07T14:48:03;17.40;;;12.13;;
58472;SDS011;44775;51.564;5.460;2023-05-07T14:50:28;11.88;;;7.50;;
58472;SDS011;44775;51.564;5.460;2023-05-07T14:52:54;12.55;;;9.93;;